S/y Stay Calm — MNVV3 — position and weather

sailwx.info

Track history (hours):
 
Tides and Currents Weather Stations Pressure Air Temp Water Temp Dewpoint Dewpoint Depression Visibility Wind Speed Wind Dir Waves Ship Positions

S/y Stay Calm

Last reported at 2017-Mar-30 06:32 UTC. Time now 2017-Mar-30 06:44 UTC.
Position N 17°00' W 061°46'.

Length 24 m.

Type: Sailing vessel. MMSI: 235038688.

Date/timePositionNaut miles runAvg speedWind from/ knotsBaromVisibWave heightAir tempDewpointWater temp
2017-Mar-30 06:32N 17°00' W 061°46'0 0.0
2017-Mar-30 05:32N 17°00' W 061°46'0 0.0
2017-Mar-30 04:33N 17°00' W 061°46'0 0.0
2017-Mar-30 03:33N 17°00' W 061°46'0 0.0
2017-Mar-30 02:33N 17°00' W 061°46'0 0.0
2017-Mar-30 01:33N 17°00' W 061°46'0 0.0
2017-Mar-30 00:33N 17°00' W 061°46'0 0.0
2017-Mar-29 23:33N 17°00' W 061°46'0 0.0
2017-Mar-29 22:33N 17°00' W 061°46'0 0.0
2017-Mar-29 21:33N 17°00' W 061°46'0 0.0
2017-Mar-29 20:33N 17°00' W 061°46'0 0.0
2017-Mar-29 19:33N 17°00' W 061°46'0 0.0
2017-Mar-29 18:33N 17°00' W 061°46'0 0.0
2017-Mar-29 17:33N 17°00' W 061°46'0 0.0
2017-Mar-29 16:33N 17°00' W 061°46'0 0.0
2017-Mar-29 15:33N 17°00' W 061°46'0 0.0
2017-Mar-29 14:33N 17°00' W 061°46'0 0.0
2017-Mar-29 13:33N 17°00' W 061°46'0 0.0
2017-Mar-29 12:33N 17°00' W 061°46'0 0.0
2017-Mar-29 11:33N 17°00' W 061°46'0 0.0
2017-Mar-29 10:33N 17°00' W 061°46'0 0.0
2017-Mar-29 09:30N 17°00' W 061°46'0 0.0
2017-Mar-29 08:33N 17°00' W 061°46'0 0.0
2017-Mar-29 07:33N 17°00' W 061°46'0 0.0
2017-Mar-29 06:33N 17°00' W 061°46'0 0.0
2017-Mar-29 05:33N 17°00' W 061°46'0 0.0
2017-Mar-29 04:33N 17°00' W 061°46'0 0.0
2017-Mar-29 03:33N 17°00' W 061°46'0 0.0
2017-Mar-29 02:33N 17°00' W 061°46'0 0.0
2017-Mar-29 01:33N 17°00' W 061°46'0 0.0
2017-Mar-29 00:33N 17°00' W 061°46'0 0.0
2017-Mar-28 23:33N 17°00' W 061°46'0 0.0
2017-Mar-28 22:33N 17°00' W 061°46'0 0.0
2017-Mar-28 21:33N 17°00' W 061°46'0 0.0
2017-Mar-28 20:33N 17°00' W 061°46'0 0.0
2017-Mar-28 19:33N 17°00' W 061°46'0 0.0
2017-Mar-28 18:33N 17°00' W 061°46'0 0.0
2017-Mar-28 17:33N 17°00' W 061°46'0 0.0
2017-Mar-28 16:33N 17°00' W 061°46'0 0.0
2017-Mar-28 15:33N 17°00' W 061°46'0 0.0
2017-Mar-28 13:30N 17°00' W 061°46'1 0.9
2017-Mar-28 12:33N 16°60' W 061°47'8 8.0
2017-Mar-28 11:33N 16°60' W 061°55'11 7.8
2017-Mar-28 10:07N 17°04' W 062°06'7 7.7
2017-Mar-28 09:10N 17°08' W 062°12'  
2017-Mar-25 15:33N 18°25' W 064°29'  
2017-Mar-22 18:10N 18°22' W 064°33'5 0.3
2017-Mar-21 21:12N 18°26' W 064°29'  
Track history (hours):
 
Tides and Currents Weather Stations Pressure Air Temp Water Temp Dewpoint Dewpoint Depression Visibility Wind Speed Wind Dir Waves Ship Positions

S/y Stay Calm

Last reported at 2017-Mar-30 06:32 UTC. Time now 2017-Mar-30 06:44 UTC.
Position N 17°00' W 061°46'.

Length 24 m.

Type: Sailing vessel. MMSI: 235038688.

Date/timePositionNaut miles runAvg speedWind from/ knotsBaromVisibWave heightAir tempDewpointWater temp
2017-Mar-30 06:32N 17°00' W 061°46'0 0.0
2017-Mar-30 05:32N 17°00' W 061°46'0 0.0
2017-Mar-30 04:33N 17°00' W 061°46'0 0.0
2017-Mar-30 03:33N 17°00' W 061°46'0 0.0
2017-Mar-30 02:33N 17°00' W 061°46'0 0.0
2017-Mar-30 01:33N 17°00' W 061°46'0 0.0
2017-Mar-30 00:33N 17°00' W 061°46'0 0.0
2017-Mar-29 23:33N 17°00' W 061°46'0 0.0
2017-Mar-29 22:33N 17°00' W 061°46'0 0.0
2017-Mar-29 21:33N 17°00' W 061°46'0 0.0
2017-Mar-29 20:33N 17°00' W 061°46'0 0.0
2017-Mar-29 19:33N 17°00' W 061°46'0 0.0
2017-Mar-29 18:33N 17°00' W 061°46'0 0.0
2017-Mar-29 17:33N 17°00' W 061°46'0 0.0
2017-Mar-29 16:33N 17°00' W 061°46'0 0.0
2017-Mar-29 15:33N 17°00' W 061°46'0 0.0
2017-Mar-29 14:33N 17°00' W 061°46'0 0.0
2017-Mar-29 13:33N 17°00' W 061°46'0 0.0
2017-Mar-29 12:33N 17°00' W 061°46'0 0.0
2017-Mar-29 11:33N 17°00' W 061°46'0 0.0
2017-Mar-29 10:33N 17°00' W 061°46'0 0.0
2017-Mar-29 09:30N 17°00' W 061°46'0 0.0
2017-Mar-29 08:33N 17°00' W 061°46'0 0.0
2017-Mar-29 07:33N 17°00' W 061°46'0 0.0
2017-Mar-29 06:33N 17°00' W 061°46'0 0.0
2017-Mar-29 05:33N 17°00' W 061°46'0 0.0
2017-Mar-29 04:33N 17°00' W 061°46'0 0.0
2017-Mar-29 03:33N 17°00' W 061°46'0 0.0
2017-Mar-29 02:33N 17°00' W 061°46'0 0.0
2017-Mar-29 01:33N 17°00' W 061°46'0 0.0
2017-Mar-29 00:33N 17°00' W 061°46'0 0.0
2017-Mar-28 23:33N 17°00' W 061°46'0 0.0
2017-Mar-28 22:33N 17°00' W 061°46'0 0.0
2017-Mar-28 21:33N 17°00' W 061°46'0 0.0
2017-Mar-28 20:33N 17°00' W 061°46'0 0.0
2017-Mar-28 19:33N 17°00' W 061°46'0 0.0
2017-Mar-28 18:33N 17°00' W 061°46'0 0.0
2017-Mar-28 17:33N 17°00' W 061°46'0 0.0
2017-Mar-28 16:33N 17°00' W 061°46'0 0.0
2017-Mar-28 15:33N 17°00' W 061°46'0 0.0
2017-Mar-28 13:30N 17°00' W 061°46'1 0.9
2017-Mar-28 12:33N 16°60' W 061°47'8 8.0
2017-Mar-28 11:33N 16°60' W 061°55'11 7.8
2017-Mar-28 10:07N 17°04' W 062°06'7 7.7
2017-Mar-28 09:10N 17°08' W 062°12'  
2017-Mar-25 15:33N 18°25' W 064°29'  
2017-Mar-22 18:10N 18°22' W 064°33'5 0.3
2017-Mar-21 21:12N 18°26' W 064°29'  

Dump ship's entire track history